^^
Saratoga-Weather Station Historical Data
Daily Summary for March 17, 2021 Units:  Metric    English   Both
Daily Weekly Monthly Yearly Custom
  High: Low: Average:
Temperature: 8.7 °C 4.7 °C 7.2 °C
Dew Point: 7.1 °C 3.5 °C 5.4 °C
Humidity: 93% 81% 88%
Wind Speed: 13km/h 0km/h 3.1km/h
Wind Gust: 16.1km/h - -
Wind- - East
Pressure: 1037.6 hPa 1036.6 hPa -
Precipitation: 0.0 mm    
Historical Graphs
 
 
Tabular Data for March 17, 2021
Time Temperature Dew Point Pressure Wind Wind Speed Wind Gust Humidity Rainfall Rate (Hourly) solar
00:03 7.8 °C 6.6 °C 1037.6 hPa ENE 3.2 km/h 9.7 km/h 92% 0.0 mm 0 W/m2
00:08 7.9 °C 6.7 °C 1037.6 hPa SSE 1.4 km/h 4.8 km/h 92% 0.0 mm 0 W/m2
00:13 7.9 °C 6.7 °C 1037.6 hPa East 1.4 km/h 4.8 km/h 92% 0.0 mm 0 W/m2
00:18 7.9 °C 6.7 °C 1037.6 hPa SE 1.4 km/h 3.2 km/h 92% 0.0 mm 0 W/m2
00:23 8 °C 6.8 °C 1037.6 hPa ENE 3.2 km/h 4.8 km/h 92% 0.0 mm 0 W/m2
00:28 8.1 °C 6.9 °C 1037.6 hPa East 3.2 km/h 3.2 km/h 92% 0.0 mm 0 W/m2
00:33 8.1 °C 6.7 °C 1037.2 hPa Calm     91% 0.0 mm 0 W/m2
00:50 8.2 °C 6.8 °C 1037.2 hPa East 6.4 km/h 6.4 km/h 91% 0.0 mm 0 W/m2
00:55 8.2 °C 6.8 °C 1037.2 hPa Calm   4.8 km/h 91% 0.0 mm 0 W/m2
01:00 8.3 °C 6.9 °C 1037.2 hPa Calm   6.4 km/h 91% 0.0 mm 0 W/m2
01:05 8.3 °C 6.9 °C 1037.2 hPa Calm   1.6 km/h 91% 0.0 mm 0 W/m2
01:10 8.3 °C 6.9 °C 1037.2 hPa Calm   4.8 km/h 91% 0.0 mm 0 W/m2
01:15 8.3 °C 6.9 °C 1037.2 hPa ESE 1.4 km/h 6.4 km/h 91% 0.0 mm 0 W/m2
01:20 8.3 °C 6.9 °C 1037.2 hPa East 3.2 km/h 4.8 km/h 91% 0.0 mm 0 W/m2
01:25 8.3 °C 6.9 °C 1037.2 hPa Calm   6.4 km/h 91% 0.0 mm 0 W/m2
01:30 8.3 °C 6.9 °C 1037.2 hPa Calm   3.2 km/h 91% 0.0 mm 0 W/m2
01:35 8.3 °C 6.9 °C 1037.2 hPa NE 4.7 km/h 6.4 km/h 91% 0.0 mm 0 W/m2
01:40 8.3 °C 6.9 °C 1037.2 hPa East 1.4 km/h 4.8 km/h 91% 0.0 mm 0 W/m2
01:45 8.3 °C 6.9 °C 1037.2 hPa East 3.2 km/h 6.4 km/h 91% 0.0 mm 0 W/m2
01:50 8.3 °C 6.9 °C 1037.2 hPa East 3.2 km/h 6.4 km/h 91% 0.0 mm 0 W/m2
01:55 8.3 °C 6.9 °C 1037.2 hPa ENE 3.2 km/h 9.7 km/h 91% 0.0 mm 0 W/m2
02:00 8.3 °C 6.9 °C 1037.2 hPa ESE 4.7 km/h 11.3 km/h 91% 0.0 mm 0 W/m2
02:05 8.4 °C 7 °C 1037.2 hPa East 1.4 km/h 3.2 km/h 91% 0.0 mm 0 W/m2
02:10 8.3 °C 6.9 °C 1037.2 hPa ESE 1.4 km/h 11.3 km/h 91% 0.0 mm 0 W/m2
02:15 8.3 °C 6.9 °C 1037.2 hPa Calm   3.2 km/h 91% 0.0 mm 0 W/m2
02:20 8.3 °C 6.9 °C 1037.2 hPa East 1.4 km/h 6.4 km/h 91% 0.0 mm 0 W/m2
02:25 8.3 °C 7.1 °C 1037.2 hPa East 1.4 km/h 1.6 km/h 92% 0.0 mm 0 W/m2
02:30 8.3 °C 7.1 °C 1037.2 hPa East 3.2 km/h 4.8 km/h 92% 0.0 mm 0 W/m2
02:35 8.2 °C 7 °C 1037.2 hPa East 1.4 km/h 4.8 km/h 92% 0.0 mm 0 W/m2
02:40 8.2 °C 6.8 °C 1037.2 hPa East 4.7 km/h 4.8 km/h 91% 0.0 mm 0 W/m2
02:45 8.2 °C 6.8 °C 1037.2 hPa ESE 3.2 km/h 4.8 km/h 91% 0.0 mm 0 W/m2
02:50 8.2 °C 6.8 °C 1037.2 hPa ESE 3.2 km/h 4.8 km/h 91% 0.0 mm 0 W/m2
02:55 8.2 °C 6.8 °C 1037.2 hPa NE 3.2 km/h 4.8 km/h 91% 0.0 mm 0 W/m2
03:00 8.3 °C 6.9 °C 1037.2 hPa East 1.4 km/h 4.8 km/h 91% 0.0 mm 0 W/m2
03:05 8.3 °C 6.9 °C 1037.2 hPa East 4.7 km/h 8 km/h 91% 0.0 mm 0 W/m2
03:10 8.3 °C 6.9 °C 1037.2 hPa ENE 6.4 km/h 6.4 km/h 91% 0.0 mm 0 W/m2
03:15 8.3 °C 6.9 °C 1037.2 hPa East 3.2 km/h 3.2 km/h 91% 0.0 mm 0 W/m2
03:20 8.3 °C 6.9 °C 1037.2 hPa East 4.7 km/h 11.3 km/h 91% 0.0 mm 0 W/m2
03:25 8.3 °C 6.9 °C 1036.9 hPa East 3.2 km/h 3.2 km/h 91% 0.0 mm 0 W/m2
03:30 8.3 °C 6.9 °C 1036.9 hPa East 1.4 km/h 4.8 km/h 91% 0.0 mm 0 W/m2
03:35 8.3 °C 6.9 °C 1036.9 hPa ESE 4.7 km/h 12.9 km/h 91% 0.0 mm 0 W/m2
03:41 8.4 °C 7 °C 1036.9 hPa ENE 6.4 km/h 11.3 km/h 91% 0.0 mm 0 W/m2
03:46 8.4 °C 7 °C 1036.6 hPa East 4.7 km/h 8 km/h 91% 0.0 mm 0 W/m2
03:51 8.4 °C 7 °C 1036.9 hPa ESE 3.2 km/h 11.3 km/h 91% 0.0 mm 0 W/m2
03:56 8.3 °C 6.9 °C 1036.6 hPa ESE 4.7 km/h 6.4 km/h 91% 0.0 mm 0 W/m2
04:01 8.3 °C 6.9 °C 1036.6 hPa NE 4.7 km/h 11.3 km/h 91% 0.0 mm 0 W/m2
04:06 8.3 °C 6.9 °C 1036.6 hPa ENE 3.2 km/h 6.4 km/h 91% 0.0 mm 0 W/m2
04:11 8.3 °C 6.9 °C 1036.6 hPa ENE 4.7 km/h 4.8 km/h 91% 0.0 mm 0 W/m2
04:16 8.3 °C 6.9 °C 1036.6 hPa ENE 7.9 km/h 8 km/h 91% 0.0 mm 0 W/m2
04:21 8.2 °C 6.8 °C 1036.6 hPa East 9.7 km/h 9.7 km/h 91% 0.0 mm 0 W/m2
04:26 8.2 °C 6.8 °C 1036.6 hPa ENE 4.7 km/h 11.3 km/h 91% 0.0 mm 0 W/m2
04:31 8.2 °C 6.8 °C 1036.6 hPa East 3.2 km/h 6.4 km/h 91% 0.0 mm 0 W/m2
04:36 8.2 °C 6.8 °C 1036.6 hPa East 6.4 km/h 11.3 km/h 91% 0.0 mm 0 W/m2
04:41 8.2 °C 6.8 °C 1036.6 hPa ESE 4.7 km/h 12.9 km/h 91% 0.0 mm 0 W/m2
04:46 8.2 °C 6.7 °C 1036.6 hPa SE 3.2 km/h 16.1 km/h 90% 0.0 mm 0 W/m2
04:51 8.2 °C 6.7 °C 1036.6 hPa ENE 4.7 km/h 11.3 km/h 90% 0.0 mm 0 W/m2
04:56 8.2 °C 6.7 °C 1036.6 hPa ESE 4.7 km/h 6.4 km/h 90% 0.0 mm 0 W/m2
05:12 8.2 °C 6.8 °C 1036.6 hPa ENE 3.2 km/h 16.1 km/h 91% 0.0 mm 0 W/m2
05:17 8.2 °C 6.8 °C 1036.6 hPa NE 4.7 km/h 8 km/h 91% 0.0 mm 0 W/m2
05:23 8.1 °C 6.6 °C 1036.6 hPa ESE 4.7 km/h 16.1 km/h 90% 0.0 mm 0 W/m2
05:28 8.1 °C 6.6 °C 1036.6 hPa NE 6.4 km/h 11.3 km/h 90% 0.0 mm 0 W/m2
05:33 8.1 °C 6.6 °C 1036.6 hPa East 1.4 km/h 8 km/h 90% 0.0 mm 0 W/m2
05:38 8.1 °C 6.6 °C 1036.6 hPa SSE 3.2 km/h 3.2 km/h 90% 0.0 mm 0 W/m2
05:43 8.1 °C 6.6 °C 1036.6 hPa ENE 4.7 km/h 9.7 km/h 90% 0.0 mm 0 W/m2
05:48 8.1 °C 6.6 °C 1036.6 hPa NE 3.2 km/h 9.7 km/h 90% 0.0 mm 0 W/m2
05:53 8 °C 6.5 °C 1036.6 hPa East 13 km/h 12.9 km/h 90% 0.0 mm 0 W/m2
05:58 8 °C 6.3 °C 1036.6 hPa East 4.7 km/h 11.3 km/h 89% 0.0 mm 0 W/m2
06:03 8 °C 6.3 °C 1036.6 hPa East 13 km/h 16.1 km/h 89% 0.0 mm 0 W/m2
06:08 8.1 °C 6.4 °C 1036.6 hPa NE 3.2 km/h 8 km/h 89% 0.0 mm 0 W/m2
06:13 8.1 °C 6.2 °C 1036.6 hPa East 11.1 km/h 12.9 km/h 88% 0.0 mm 0 W/m2
06:18 8.1 °C 6.2 °C 1036.6 hPa East 1.4 km/h 9.7 km/h 88% 0.0 mm 0 W/m2
06:23 8.1 °C 6.1 °C 1036.6 hPa South 3.2 km/h 14.5 km/h 87% 0.0 mm 0 W/m2
06:28 8.1 °C 6.1 °C 1036.6 hPa ENE 6.4 km/h 8 km/h 87% 0.0 mm 0 W/m2
06:33 8.1 °C 6.1 °C 1036.6 hPa SE 6.4 km/h 14.5 km/h 87% 0.0 mm 0 W/m2
06:38 8.1 °C 5.9 °C 1036.6 hPa East 3.2 km/h 11.3 km/h 86% 0.0 mm 0 W/m2
06:43 8.2 °C 6 °C 1036.6 hPa SE 4.7 km/h 8 km/h 86% 0.0 mm 0 W/m2
06:48 8.1 °C 5.7 °C 1036.6 hPa ENE 3.2 km/h 11.3 km/h 85% 0.0 mm 0 W/m2
06:53 8.1 °C 5.7 °C 1036.6 hPa SE 3.2 km/h 6.4 km/h 85% 0.0 mm 0 W/m2
06:58 8.1 °C 5.7 °C 1036.6 hPa East 1.4 km/h 11.3 km/h 85% 0.0 mm 0 W/m2
07:03 8.1 °C 5.7 °C 1036.6 hPa SE 1.4 km/h 4.8 km/h 85% 0.0 mm 0 W/m2
07:08 8.1 °C 5.7 °C 1036.6 hPa East 4.7 km/h 9.7 km/h 85% 0.0 mm 0 W/m2
07:13 8.1 °C 5.7 °C 1036.6 hPa ENE 3.2 km/h 12.9 km/h 85% 0.0 mm 0 W/m2
07:18 8.1 °C 5.7 °C 1036.6 hPa ENE 11.1 km/h 16.1 km/h 85% 0.0 mm 0 W/m2
07:23 8.1 °C 5.6 °C 1036.9 hPa ENE 1.4 km/h 11.3 km/h 84% 0.0 mm 0 W/m2
07:28 8.1 °C 5.7 °C 1036.9 hPa ENE 3.2 km/h 3.2 km/h 85% 0.0 mm 0 W/m2
07:33 8 °C 5.6 °C 1036.9 hPa Calm   4.8 km/h 85% 0.0 mm 0 W/m2
07:38 8 °C 5.6 °C 1036.9 hPa East 4.7 km/h 4.8 km/h 85% 0.0 mm 0 W/m2
07:43 7.9 °C 5.5 °C 1036.9 hPa NE 3.2 km/h 6.4 km/h 85% 0.0 mm 0 W/m2
07:48 7.9 °C 5.5 °C 1036.9 hPa ENE 1.4 km/h 6.4 km/h 85% 0.0 mm 0 W/m2
07:53 7.9 °C 5.5 °C 1036.9 hPa ESE 4.7 km/h 4.8 km/h 85% 0.0 mm 0 W/m2
07:58 7.9 °C 5.5 °C 1036.9 hPa ESE 3.2 km/h 6.4 km/h 85% 0.0 mm 0 W/m2
08:03 7.8 °C 5.4 °C 1036.9 hPa ESE 1.4 km/h 4.8 km/h 85% 0.0 mm 0 W/m2
08:08 7.8 °C 5.4 °C 1036.9 hPa East 3.2 km/h 4.8 km/h 85% 0.0 mm 0 W/m2
08:13 7.8 °C 5.4 °C 1036.9 hPa ESE 3.2 km/h 4.8 km/h 85% 0.0 mm 0 W/m2
08:18 7.7 °C 5.5 °C 1036.9 hPa East 3.2 km/h 11.3 km/h 86% 0.0 mm 0 W/m2
08:23 7.7 °C 5.5 °C 1036.9 hPa ESE 4.7 km/h 8 km/h 86% 0.0 mm 0 W/m2
08:28 7.7 °C 5.5 °C 1036.9 hPa East 4.7 km/h 11.3 km/h 86% 0.0 mm 0 W/m2
08:33 7.7 °C 5.5 °C 1036.9 hPa ESE 3.2 km/h 6.4 km/h 86% 0.0 mm 5 W/m2
08:38 7.6 °C 5.4 °C 1036.9 hPa East 1.4 km/h 11.3 km/h 86% 0.0 mm 7 W/m2
08:43 7.6 °C 5.4 °C 1036.9 hPa SE 4.7 km/h 6.4 km/h 86% 0.0 mm 9 W/m2
08:48 7.6 °C 5.2 °C 1036.9 hPa Calm   9.7 km/h 85% 0.0 mm 11 W/m2
08:53 7.5 °C 5.3 °C 1036.9 hPa ESE 3.2 km/h 4.8 km/h 86% 0.0 mm 16 W/m2
08:58 7.4 °C 5.2 °C 1036.9 hPa ESE 3.2 km/h 4.8 km/h 86% 0.0 mm 16 W/m2
09:03 7.3 °C 5.1 °C 1037.2 hPa ENE 3.2 km/h 4.8 km/h 86% 0.0 mm 16 W/m2
09:09 7.2 °C 5 °C 1037.2 hPa ENE 3.2 km/h 8 km/h 86% 0.0 mm 21 W/m2
09:14 7.2 °C 5 °C 1037.2 hPa ENE 1.4 km/h 6.4 km/h 86% 0.0 mm 30 W/m2
09:19 7.1 °C 4.9 °C 1037.2 hPa ESE 6.4 km/h 8 km/h 86% 0.0 mm 26 W/m2
09:39 7.1 °C 4.9 °C 1037.2 hPa SE 4.7 km/h 6.4 km/h 86% 0.0 mm 21 W/m2
09:44 7 °C 5 °C 1037.2 hPa East 9.7 km/h 11.3 km/h 87% 0.0 mm 21 W/m2
09:49 7.1 °C 5.1 °C 1037.2 hPa East 3.2 km/h 4.8 km/h 87% 0.0 mm 23 W/m2
09:54 7.1 °C 5.1 °C 1037.2 hPa East 3.2 km/h 12.9 km/h 87% 0.0 mm 23 W/m2
09:59 7.2 °C 5.2 °C 1037.6 hPa East 3.2 km/h 6.4 km/h 87% 0.0 mm 25 W/m2
10:04 7.2 °C 5 °C 1037.2 hPa East 3.2 km/h 4.8 km/h 86% 0.0 mm 25 W/m2
10:09 7.2 °C 5 °C 1037.2 hPa East 3.2 km/h 4.8 km/h 86% 0.0 mm 26 W/m2
10:14 7.2 °C 5 °C 1037.2 hPa East 3.2 km/h 12.9 km/h 86% 0.0 mm 35 W/m2
10:19 7.3 °C 5.1 °C 1037.2 hPa SE 4.7 km/h 9.7 km/h 86% 0.0 mm 33 W/m2
10:24 7.4 °C 5 °C 1037.2 hPa East 3.2 km/h 12.9 km/h 85% 0.0 mm 26 W/m2
10:29 7.4 °C 5 °C 1037.2 hPa East 6.4 km/h 8 km/h 85% 0.0 mm 33 W/m2
10:34 7.6 °C 5.2 °C 1037.2 hPa ESE 1.4 km/h 4.8 km/h 85% 0.0 mm 30 W/m2
10:39 7.6 °C 5.2 °C 1037.6 hPa East 1.4 km/h 11.3 km/h 85% 0.0 mm 30 W/m2
10:44 7.6 °C 5.2 °C 1037.2 hPa ESE 11.1 km/h 12.9 km/h 85% 0.0 mm 32 W/m2
10:49 7.6 °C 5.2 °C 1037.2 hPa East 6.4 km/h 11.3 km/h 85% 0.0 mm 28 W/m2
10:54 7.7 °C 5.2 °C 1037.6 hPa East 9.7 km/h 9.7 km/h 84% 0.0 mm 28 W/m2
10:59 7.7 °C 5.2 °C 1037.6 hPa ESE 4.7 km/h 6.4 km/h 84% 0.0 mm 28 W/m2
11:04 7.8 °C 5.3 °C 1037.6 hPa East 4.7 km/h 9.7 km/h 84% 0.0 mm 28 W/m2
11:09 7.8 °C 5.3 °C 1037.6 hPa East 4.7 km/h 6.4 km/h 84% 0.0 mm 37 W/m2
11:14 7.8 °C 5.3 °C 1037.2 hPa East 1.4 km/h 8 km/h 84% 0.0 mm 47 W/m2
11:19 7.8 °C 5.3 °C 1037.2 hPa ESE 4.7 km/h 9.7 km/h 84% 0.0 mm 58 W/m2
11:24 7.8 °C 5.3 °C 1037.2 hPa East 9.7 km/h 11.3 km/h 84% 0.0 mm 51 W/m2
11:29 7.9 °C 5.4 °C 1037.6 hPa ENE 1.4 km/h 6.4 km/h 84% 0.0 mm 74 W/m2
11:34 7.9 °C 5.4 °C 1037.6 hPa ENE 4.7 km/h 8 km/h 84% 0.0 mm 58 W/m2
11:39 7.9 °C 5.4 °C 1037.6 hPa Calm   3.2 km/h 84% 0.0 mm 67 W/m2
11:44 7.9 °C 5.4 °C 1037.2 hPa NNW 4.7 km/h 4.8 km/h 84% 0.0 mm 62 W/m2
11:49 7.8 °C 5.3 °C 1037.2 hPa East 3.2 km/h 6.4 km/h 84% 0.0 mm 58 W/m2
11:54 7.8 °C 5.3 °C 1037.2 hPa ENE 1.4 km/h 11.3 km/h 84% 0.0 mm 46 W/m2
11:59 7.8 °C 5.3 °C 1037.2 hPa ENE 3.2 km/h 8 km/h 84% 0.0 mm 62 W/m2
12:04 7.8 °C 5.3 °C 1037.6 hPa NE 4.7 km/h 11.3 km/h 84% 0.0 mm 79 W/m2
12:09 7.8 °C 5.3 °C 1037.2 hPa East 3.2 km/h 8 km/h 84% 0.0 mm 83 W/m2
12:14 7.9 °C 5.4 °C 1037.2 hPa Calm   11.3 km/h 84% 0.0 mm 72 W/m2
12:19 7.9 °C 5.4 °C 1037.2 hPa East 4.7 km/h 9.7 km/h 84% 0.0 mm 54 W/m2
12:24 8.1 °C 5.6 °C 1037.2 hPa Calm   4.8 km/h 84% 0.0 mm 47 W/m2
12:29 8.1 °C 5.4 °C 1037.2 hPa NE 11.1 km/h 11.3 km/h 83% 0.0 mm 56 W/m2
12:34 8.1 °C 5.4 °C 1037.2 hPa ESE 3.2 km/h 11.3 km/h 83% 0.0 mm 33 W/m2
12:40 8.1 °C 5.4 °C 1037.2 hPa NNE 6.4 km/h 9.7 km/h 83% 0.0 mm 32 W/m2
12:45 8.1 °C 5.4 °C 1037.2 hPa ESE 4.7 km/h   83% 0.0 mm 32 W/m2
12:50 8.2 °C 5.5 °C 1036.9 hPa ENE 3.2 km/h 6.4 km/h 83% 0.0 mm 30 W/m2
12:55 8.2 °C 5.5 °C 1036.9 hPa East 3.2 km/h 12.9 km/h 83% 0.0 mm 30 W/m2
13:00 8.3 °C 5.4 °C 1036.9 hPa South 1.4 km/h 11.3 km/h 82% 0.0 mm 30 W/m2
13:05 8.3 °C 5.4 °C 1036.9 hPa ESE 7.9 km/h 12.9 km/h 82% 0.0 mm 30 W/m2
13:10 8.3 °C 5.4 °C 1036.9 hPa ENE 9.7 km/h 11.3 km/h 82% 0.0 mm 30 W/m2
13:29 8.5 °C 5.4 °C 1036.9 hPa NE 3.2 km/h 12.9 km/h 81% 0.0 mm 28 W/m2
13:34 8.6 °C 5.5 °C 1036.9 hPa East 11.1 km/h 16.1 km/h 81% 0.0 mm 30 W/m2
13:39 8.7 °C 5.6 °C 1036.9 hPa SE 3.2 km/h 8 km/h 81% 0.0 mm 30 W/m2
13:44 8.7 °C 5.8 °C 1036.9 hPa NNE 3.2 km/h 6.4 km/h 82% 0.0 mm 32 W/m2
13:49 8.7 °C 6 °C 1036.9 hPa North 4.7 km/h 11.3 km/h 83% 0.0 mm 32 W/m2
13:54 8.7 °C 6 °C 1036.9 hPa Calm   6.4 km/h 83% 0.0 mm 32 W/m2
13:59 8.6 °C 5.9 °C 1036.9 hPa NE 1.4 km/h 6.4 km/h 83% 0.0 mm 28 W/m2
14:04 8.6 °C 5.9 °C 1036.9 hPa Calm   4.8 km/h 83% 0.0 mm 28 W/m2
14:09 8.6 °C 5.9 °C 1036.6 hPa SSE 1.4 km/h 11.3 km/h 83% 0.0 mm 28 W/m2
14:14 8.6 °C 5.7 °C 1036.9 hPa West 1.4 km/h 6.4 km/h 82% 0.0 mm 26 W/m2
14:19 8.5 °C 5.6 °C 1036.6 hPa Calm   8 km/h 82% 0.0 mm 26 W/m2
14:24 8.5 °C 5.6 °C 1036.6 hPa ENE 6.4 km/h 11.3 km/h 82% 0.0 mm 26 W/m2
14:29 8.5 °C 5.6 °C 1036.6 hPa ENE 3.2 km/h 8 km/h 82% 0.0 mm 25 W/m2
14:34 8.5 °C 5.6 °C 1036.6 hPa NE 3.2 km/h 11.3 km/h 82% 0.0 mm 25 W/m2
14:39 8.5 °C 5.6 °C 1036.6 hPa East 6.4 km/h 9.7 km/h 82% 0.0 mm 23 W/m2
14:44 8.5 °C 5.6 °C 1036.6 hPa NE 3.2 km/h 11.3 km/h 82% 0.0 mm 23 W/m2
14:49 8.5 °C 5.6 °C 1036.6 hPa Calm   6.4 km/h 82% 0.0 mm 23 W/m2
14:54 8.5 °C 5.6 °C 1036.6 hPa East 1.4 km/h 6.4 km/h 82% 0.0 mm 23 W/m2
14:59 8.5 °C 5.6 °C 1036.6 hPa SE 4.7 km/h 9.7 km/h 82% 0.0 mm 21 W/m2
15:18 8.3 °C 5.4 °C 1036.6 hPa NNE 6.4 km/h 6.4 km/h 82% 0.0 mm 19 W/m2
15:23 8.3 °C 5.4 °C 1036.6 hPa North 9.7 km/h 9.7 km/h 82% 0.0 mm 19 W/m2
15:28 8.3 °C 5.4 °C 1036.6 hPa SW 3.2 km/h 4.8 km/h 82% 0.0 mm 19 W/m2
15:33 8.3 °C 5.4 °C 1036.6 hPa SW 3.2 km/h 3.2 km/h 82% 0.0 mm 18 W/m2
15:38 8.2 °C 5.3 °C 1036.6 hPa East 1.4 km/h 4.8 km/h 82% 0.0 mm 18 W/m2
15:43 8.2 °C 5.5 °C 1036.6 hPa Calm   9.7 km/h 83% 0.0 mm 16 W/m2
15:48 8.2 °C 5.5 °C 1036.6 hPa ENE 1.4 km/h 6.4 km/h 83% 0.0 mm 16 W/m2
15:53 8.1 °C 5.4 °C 1036.6 hPa ESE 1.4 km/h 4.8 km/h 83% 0.0 mm 14 W/m2
15:58 8.1 °C 5.2 °C 1036.6 hPa East 6.4 km/h 9.7 km/h 82% 0.0 mm 14 W/m2
16:03 8.1 °C 5.2 °C 1036.6 hPa SSE 3.2 km/h 3.2 km/h 82% 0.0 mm 12 W/m2
16:08 7.9 °C 5 °C 1036.6 hPa ENE 3.2 km/h 11.3 km/h 82% 0.0 mm 12 W/m2
16:13 7.9 °C 5.2 °C 1036.6 hPa ESE 3.2 km/h 3.2 km/h 83% 0.0 mm 11 W/m2
16:18 7.8 °C 5.1 °C 1036.6 hPa East 3.2 km/h 3.2 km/h 83% 0.0 mm 9 W/m2
16:23 7.7 °C 5 °C 1036.6 hPa East 1.4 km/h 6.4 km/h 83% 0.0 mm 9 W/m2
16:28 7.6 °C 5.1 °C 1036.6 hPa East 3.2 km/h 6.4 km/h 84% 0.0 mm 7 W/m2
16:33 7.5 °C 5 °C 1036.6 hPa Calm   4.8 km/h 84% 0.0 mm 5 W/m2
16:38 7.4 °C 4.9 °C 1036.6 hPa Calm   6.4 km/h 84% 0.0 mm 5 W/m2
16:43 7.3 °C 4.8 °C 1036.6 hPa Calm   1.6 km/h 84% 0.0 mm 0 W/m2
16:48 7.3 °C 4.8 °C 1036.6 hPa NNW 1.4 km/h 3.2 km/h 84% 0.0 mm 0 W/m2
16:54 7.1 °C 4.7 °C 1036.6 hPa Calm   3.2 km/h 85% 0.0 mm 0 W/m2
16:59 7 °C 4.7 °C 1036.6 hPa Calm   1.6 km/h 85% 0.0 mm 0 W/m2
17:04 6.9 °C 4.7 °C 1036.6 hPa Calm   6.4 km/h 86% 0.0 mm 0 W/m2
17:09 6.8 °C 4.6 °C 1036.9 hPa ENE 1.4 km/h 4.8 km/h 86% 0.0 mm 0 W/m2
17:14 6.7 °C 4.7 °C 1036.9 hPa Calm   6.4 km/h 87% 0.0 mm 0 W/m2
17:19 6.7 °C 4.7 °C 1036.9 hPa Calm   1.6 km/h 87% 0.0 mm 0 W/m2
17:24 6.6 °C 4.6 °C 1036.9 hPa Calm   3.2 km/h 87% 0.0 mm 0 W/m2
17:29 6.6 °C 4.6 °C 1036.9 hPa ESE 3.2 km/h 3.2 km/h 87% 0.0 mm 0 W/m2
17:34 6.4 °C 4.4 °C 1036.9 hPa East 1.4 km/h 6.4 km/h 87% 0.0 mm 0 W/m2
17:39 6.4 °C 4.4 °C 1036.9 hPa East 3.2 km/h 4.8 km/h 87% 0.0 mm 0 W/m2
17:44 6.3 °C 4.5 °C 1037.2 hPa Calm   6.4 km/h 88% 0.0 mm 0 W/m2
17:49 6.2 °C 4.4 °C 1037.2 hPa Calm   3.2 km/h 88% 0.0 mm 0 W/m2
17:54 6.1 °C 4.4 °C 1037.2 hPa NNW 3.2 km/h 3.2 km/h 89% 0.0 mm 0 W/m2
17:59 6.1 °C 4.4 °C 1037.2 hPa NE 1.4 km/h 6.4 km/h 89% 0.0 mm 0 W/m2
18:04 6 °C 4.3 °C 1037.2 hPa ESE 3.2 km/h 3.2 km/h 89% 0.0 mm 0 W/m2
18:09 6 °C 4.3 °C 1037.2 hPa Calm   4.8 km/h 89% 0.0 mm 0 W/m2
18:14 5.9 °C 4.2 °C 1037.2 hPa South 3.2 km/h 3.2 km/h 89% 0.0 mm 0 W/m2
18:19 5.8 °C 4.1 °C 1037.2 hPa Calm   3.2 km/h 89% 0.0 mm 0 W/m2
18:24 5.7 °C 4.2 °C 1037.2 hPa Calm     90% 0.0 mm 0 W/m2
18:29 5.7 °C 4.2 °C 1037.6 hPa SE 4.7 km/h 4.8 km/h 90% 0.0 mm 0 W/m2
18:34 5.6 °C 4.1 °C 1037.6 hPa WNW 1.4 km/h 4.8 km/h 90% 0.0 mm 0 W/m2
18:39 5.6 °C 4.1 °C 1037.2 hPa Calm   3.2 km/h 90% 0.0 mm 0 W/m2
18:44 5.5 °C 4 °C 1037.2 hPa Calm   3.2 km/h 90% 0.0 mm 0 W/m2
18:49 5.4 °C 3.9 °C 1037.2 hPa East 1.4 km/h 3.2 km/h 90% 0.0 mm 0 W/m2
18:54 5.3 °C 4 °C 1037.2 hPa East 1.4 km/h 3.2 km/h 91% 0.0 mm 0 W/m2
18:59 5.3 °C 4 °C 1037.2 hPa ENE 6.4 km/h 6.4 km/h 91% 0.0 mm 0 W/m2
19:04 5.2 °C 3.9 °C 1037.2 hPa NE 3.2 km/h 6.4 km/h 91% 0.0 mm 0 W/m2
19:09 5.3 °C 4 °C 1037.2 hPa SE 1.4 km/h 6.4 km/h 91% 0.0 mm 0 W/m2
19:14 5.2 °C 3.9 °C 1037.2 hPa ENE 1.4 km/h 3.2 km/h 91% 0.0 mm 0 W/m2
19:19 5.2 °C 3.9 °C 1037.2 hPa NE 1.4 km/h 8 km/h 91% 0.0 mm 0 W/m2
19:24 5.2 °C 4 °C 1037.2 hPa ESE 1.4 km/h 3.2 km/h 92% 0.0 mm 0 W/m2
19:29 5.1 °C 3.9 °C 1037.2 hPa Calm   1.6 km/h 92% 0.0 mm 0 W/m2
19:34 5.1 °C 3.8 °C 1037.2 hPa Calm   1.6 km/h 91% 0.0 mm 0 W/m2
19:39 5 °C 3.8 °C 1037.6 hPa Calm   3.2 km/h 92% 0.0 mm 0 W/m2
19:45 4.9 °C 3.7 °C 1037.6 hPa Calm     92% 0.0 mm 0 W/m2
19:50 4.8 °C 3.6 °C 1037.6 hPa Calm   3.2 km/h 92% 0.0 mm 0 W/m2
19:55 4.8 °C 3.6 °C 1037.6 hPa Calm   4.8 km/h 92% 0.0 mm 0 W/m2
20:00 4.7 °C 3.5 °C 1037.6 hPa NE 4.7 km/h 6.4 km/h 92% 0.0 mm 0 W/m2
20:05 4.7 °C 3.7 °C 1037.6 hPa ENE 1.4 km/h 3.2 km/h 93% 0.0 mm 0 W/m2
20:10 4.7 °C 3.7 °C 1037.6 hPa East 3.2 km/h 6.4 km/h 93% 0.0 mm 0 W/m2
20:15 4.7 °C 3.7 °C 1037.6 hPa ESE 1.4 km/h 6.4 km/h 93% 0.0 mm 0 W/m2
20:20 4.7 °C 3.7 °C 1037.6 hPa SE 3.2 km/h 6.4 km/h 93% 0.0 mm 0 W/m2
20:25 4.8 °C 3.8 °C 1037.6 hPa ESE 1.4 km/h 9.7 km/h 93% 0.0 mm 0 W/m2
20:30 4.9 °C 3.9 °C 1037.6 hPa ENE 1.4 km/h 9.7 km/h 93% 0.0 mm 0 W/m2
20:35 4.9 °C 3.9 °C 1037.6 hPa SE 1.4 km/h 4.8 km/h 93% 0.0 mm 0 W/m2
20:40 5 °C 4 °C 1037.2 hPa ESE 3.2 km/h 9.7 km/h 93% 0.0 mm 0 W/m2
20:45 5 °C 4 °C 1037.2 hPa Calm   6.4 km/h 93% 0.0 mm 0 W/m2
20:50 5 °C 4 °C 1037.2 hPa East 3.2 km/h 9.7 km/h 93% 0.0 mm 0 W/m2
20:55 5.1 °C 4.1 °C 1037.2 hPa East 4.7 km/h 4.8 km/h 93% 0.0 mm 0 W/m2
21:00 5.1 °C 4.1 °C 1037.2 hPa Calm   3.2 km/h 93% 0.0 mm 0 W/m2
21:05 5.1 °C 4.1 °C 1037.2 hPa Calm     93% 0.0 mm 0 W/m2
21:10 5.2 °C 4 °C 1037.6 hPa East 3.2 km/h 4.8 km/h 92% 0.0 mm 0 W/m2
21:15 5.1 °C 3.9 °C 1037.2 hPa ESE 3.2 km/h 9.7 km/h 92% 0.0 mm 0 W/m2
21:20 5.2 °C 4 °C 1037.6 hPa ESE 3.2 km/h 4.8 km/h 92% 0.0 mm 0 W/m2
21:25 5.1 °C 3.8 °C 1037.6 hPa ESE 1.4 km/h 6.4 km/h 91% 0.0 mm 0 W/m2
21:30 5.1 °C 3.8 °C 1037.6 hPa East 1.4 km/h 3.2 km/h 91% 0.0 mm 0 W/m2
21:35 5.1 °C 3.8 °C 1037.6 hPa East 3.2 km/h 3.2 km/h 91% 0.0 mm 0 W/m2
21:40 5.1 °C 3.8 °C 1037.6 hPa ESE 3.2 km/h 4.8 km/h 91% 0.0 mm 0 W/m2
21:45 5.1 °C 3.8 °C 1037.6 hPa ESE 1.4 km/h 3.2 km/h 91% 0.0 mm 0 W/m2
21:50 5 °C 3.7 °C 1037.6 hPa Calm   4.8 km/h 91% 0.0 mm 0 W/m2
21:55 5.1 °C 3.8 °C 1037.6 hPa East 1.4 km/h 4.8 km/h 91% 0.0 mm 0 W/m2
22:00 5.1 °C 3.8 °C 1037.2 hPa Calm   4.8 km/h 91% 0.0 mm 0 W/m2
22:05 5.1 °C 3.8 °C 1037.2 hPa East 1.4 km/h 6.4 km/h 91% 0.0 mm 0 W/m2
22:10 5.1 °C 3.8 °C 1037.2 hPa East 6.4 km/h 6.4 km/h 91% 0.0 mm 0 W/m2
22:15 5.1 °C 3.9 °C 1037.2 hPa East 3.2 km/h 8 km/h 92% 0.0 mm 0 W/m2
22:20 5.2 °C 4 °C 1037.2 hPa ESE 3.2 km/h 8 km/h 92% 0.0 mm 0 W/m2
22:25 5.2 °C 4 °C 1037.2 hPa East 1.4 km/h 4.8 km/h 92% 0.0 mm 0 W/m2
22:30 5.2 °C 4 °C 1037.2 hPa ENE 4.7 km/h 11.3 km/h 92% 0.0 mm 0 W/m2
22:35 5.3 °C 4.1 °C 1037.2 hPa East 3.2 km/h 6.4 km/h 92% 0.0 mm 0 W/m2
22:40 5.3 °C 4.1 °C 1037.2 hPa ESE 4.7 km/h 12.9 km/h 92% 0.0 mm 0 W/m2
22:45 5.3 °C 4.1 °C 1037.2 hPa ESE 4.7 km/h 6.4 km/h 92% 0.0 mm 0 W/m2
22:50 5.3 °C 4.1 °C 1037.2 hPa East 3.2 km/h 12.9 km/h 92% 0.0 mm 0 W/m2
22:55 5.3 °C 4.1 °C 1037.2 hPa East 3.2 km/h 4.8 km/h 92% 0.0 mm 0 W/m2
23:01 5.3 °C 4.3 °C 1037.2 hPa ESE 3.2 km/h 9.7 km/h 93% 0.0 mm 0 W/m2
23:06 5.3 °C 4.3 °C 1037.2 hPa Calm   3.2 km/h 93% 0.0 mm 0 W/m2
23:11 5.3 °C 4.3 °C 1037.2 hPa Calm   6.4 km/h 93% 0.0 mm 0 W/m2
23:16 5.3 °C 4.3 °C 1037.2 hPa Calm     93% 0.0 mm 0 W/m2
23:21 5.3 °C 4.3 °C 1037.2 hPa ENE 4.7 km/h 4.8 km/h 93% 0.0 mm 0 W/m2
23:26 5.3 °C 4.3 °C 1037.2 hPa ENE 1.4 km/h 4.8 km/h 93% 0.0 mm 0 W/m2
23:46 5.4 °C 4.4 °C 1037.6 hPa East 3.2 km/h 4.8 km/h 93% 0.0 mm 0 W/m2
23:51 5.4 °C 4.4 °C 1037.2 hPa Calm   3.2 km/h 93% 0.0 mm 0 W/m2
23:56 5.4 °C 4.2 °C 1037.2 hPa Calm   3.2 km/h 92% 0.0 mm 0 W/m2
Juneau County Weather
Compliments of Weather Underground - 4 mb